sensor_id;sensor_type;location;lat;lon;timestamp;P1;durP1;ratioP1;P2;durP2;ratioP2
35223;SDS011;21367;51.930;8.112;2023-05-06T00:03:40;13.30;;;9.65;;
35223;SDS011;21367;51.930;8.112;2023-05-06T00:08:44;13.48;;;9.95;;
35223;SDS011;21367;51.930;8.112;2023-05-06T00:13:51;19.45;;;11.35;;
35223;SDS011;21367;51.930;8.112;2023-05-06T00:18:55;14.38;;;10.20;;
35223;SDS011;21367;51.930;8.112;2023-05-06T00:23:58;13.07;;;9.25;;
35223;SDS011;21367;51.930;8.112;2023-05-06T00:29:05;16.35;;;10.35;;
35223;SDS011;21367;51.930;8.112;2023-05-06T00:34:09;13.60;;;9.57;;
35223;SDS011;21367;51.930;8.112;2023-05-06T00:39:13;13.98;;;9.65;;
35223;SDS011;21367;51.930;8.112;2023-05-06T00:44:19;14.50;;;9.55;;
35223;SDS011;21367;51.930;8.112;2023-05-06T00:49:23;18.50;;;10.05;;
35223;SDS011;21367;51.930;8.112;2023-05-06T00:54:27;14.65;;;10.32;;
35223;SDS011;21367;51.930;8.112;2023-05-06T00:59:34;14.88;;;9.98;;
35223;SDS011;21367;51.930;8.112;2023-05-06T01:04:38;16.35;;;10.68;;
35223;SDS011;21367;51.930;8.112;2023-05-06T01:09:45;24.52;;;11.43;;
35223;SDS011;21367;51.930;8.112;2023-05-06T01:14:58;37.88;;;11.05;;
35223;SDS011;21367;51.930;8.112;2023-05-06T01:20:08;17.77;;;10.25;;
35223;SDS011;21367;51.930;8.112;2023-05-06T01:25:21;15.20;;;9.45;;
35223;SDS011;21367;51.930;8.112;2023-05-06T01:30:25;16.33;;;9.23;;
35223;SDS011;21367;51.930;8.112;2023-05-06T01:35:39;12.77;;;7.75;;
35223;SDS011;21367;51.930;8.112;2023-05-06T01:40:55;13.98;;;9.00;;
35223;SDS011;21367;51.930;8.112;2023-05-06T01:46:00;12.30;;;7.97;;
35223;SDS011;21367;51.930;8.112;2023-05-06T01:51:05;16.70;;;8.18;;
35223;SDS011;21367;51.930;8.112;2023-05-06T01:56:12;14.65;;;8.80;;
35223;SDS011;21367;51.930;8.112;2023-05-06T02:01:16;14.75;;;8.80;;
35223;SDS011;21367;51.930;8.112;2023-05-06T02:06:19;22.10;;;8.75;;
35223;SDS011;21367;51.930;8.112;2023-05-06T02:11:26;43.92;;;8.45;;
35223;SDS011;21367;51.930;8.112;2023-05-06T02:16:36;26.02;;;9.23;;
35223;SDS011;21367;51.930;8.112;2023-05-06T02:21:40;32.80;;;9.73;;
35223;SDS011;21367;51.930;8.112;2023-05-06T02:26:47;16.23;;;9.10;;
35223;SDS011;21367;51.930;8.112;2023-05-06T02:31:51;24.45;;;9.93;;
35223;SDS011;21367;51.930;8.112;2023-05-06T02:36:55;44.03;;;10.65;;
35223;SDS011;21367;51.930;8.112;2023-05-06T02:42:04;15.68;;;10.20;;
35223;SDS011;21367;51.930;8.112;2023-05-06T02:47:08;32.22;;;13.13;;
35223;SDS011;21367;51.930;8.112;2023-05-06T02:52:11;84.80;;;13.40;;
35223;SDS011;21367;51.930;8.112;2023-05-06T02:57:19;279.40;;;14.88;;
35223;SDS011;21367;51.930;8.112;2023-05-06T03:02:23;78.88;;;14.15;;
35223;SDS011;21367;51.930;8.112;2023-05-06T03:07:27;94.60;;;12.10;;
35223;SDS011;21367;51.930;8.112;2023-05-06T03:12:33;100.53;;;12.65;;
35223;SDS011;21367;51.930;8.112;2023-05-06T03:17:37;132.45;;;12.27;;
35223;SDS011;21367;51.930;8.112;2023-05-06T03:22:41;67.22;;;11.55;;
35223;SDS011;21367;51.930;8.112;2023-05-06T03:27:48;243.80;;;13.48;;
35223;SDS011;21367;51.930;8.112;2023-05-06T03:32:55;201.38;;;15.63;;
35223;SDS011;21367;51.930;8.112;2023-05-06T03:38:03;277.95;;;15.65;;
35223;SDS011;21367;51.930;8.112;2023-05-06T03:43:17;145.10;;;14.45;;
35223;SDS011;21367;51.930;8.112;2023-05-06T03:48:25;154.40;;;15.43;;
35223;SDS011;21367;51.930;8.112;2023-05-06T03:53:29;193.90;;;16.15;;
35223;SDS011;21367;51.930;8.112;2023-05-06T03:58:37;100.78;;;16.77;;
35223;SDS011;21367;51.930;8.112;2023-05-06T04:03:43;112.05;;;16.65;;
35223;SDS011;21367;51.930;8.112;2023-05-06T04:08:48;213.75;;;19.60;;
35223;SDS011;21367;51.930;8.112;2023-05-06T04:13:55;117.20;;;16.40;;
35223;SDS011;21367;51.930;8.112;2023-05-06T04:19:02;98.50;;;17.88;;
35223;SDS011;21367;51.930;8.112;2023-05-06T04:24:07;66.68;;;17.42;;
35223;SDS011;21367;51.930;8.112;2023-05-06T04:29:16;97.65;;;16.27;;
35223;SDS011;21367;51.930;8.112;2023-05-06T04:34:31;88.80;;;18.42;;
35223;SDS011;21367;51.930;8.112;2023-05-06T04:44:44;113.13;;;16.05;;
35223;SDS011;21367;51.930;8.112;2023-05-06T04:49:51;194.90;;;17.63;;
35223;SDS011;21367;51.930;8.112;2023-05-06T04:54:56;166.50;;;16.57;;
35223;SDS011;21367;51.930;8.112;2023-05-06T05:00:04;27.05;;;15.43;;
35223;SDS011;21367;51.930;8.112;2023-05-06T05:05:10;148.75;;;16.88;;
35223;SDS011;21367;51.930;8.112;2023-05-06T05:10:16;54.42;;;15.10;;
35223;SDS011;21367;51.930;8.112;2023-05-06T05:25:35;229.47;;;14.60;;
35223;SDS011;21367;51.930;8.112;2023-05-06T05:30:42;318.85;;;16.67;;
35223;SDS011;21367;51.930;8.112;2023-05-06T05:35:46;309.67;;;15.27;;
35223;SDS011;21367;51.930;8.112;2023-05-06T05:40:51;230.50;;;14.77;;
35223;SDS011;21367;51.930;8.112;2023-05-06T05:45:57;288.30;;;15.50;;
35223;SDS011;21367;51.930;8.112;2023-05-06T05:51:05;252.88;;;14.20;;
35223;SDS011;21367;51.930;8.112;2023-05-06T05:56:10;72.57;;;12.65;;
35223;SDS011;21367;51.930;8.112;2023-05-06T06:01:17;36.35;;;11.38;;
35223;SDS011;21367;51.930;8.112;2023-05-06T06:06:22;24.55;;;11.48;;
35223;SDS011;21367;51.930;8.112;2023-05-06T06:11:26;147.55;;;12.02;;
35223;SDS011;21367;51.930;8.112;2023-05-06T06:16:34;142.70;;;12.40;;
35223;SDS011;21367;51.930;8.112;2023-05-06T06:21:39;43.13;;;12.02;;
35223;SDS011;21367;51.930;8.112;2023-05-06T06:26:43;75.13;;;11.30;;
35223;SDS011;21367;51.930;8.112;2023-05-06T06:31:51;118.32;;;12.00;;
35223;SDS011;21367;51.930;8.112;2023-05-06T06:36:55;353.40;;;14.35;;
35223;SDS011;21367;51.930;8.112;2023-05-06T06:41:59;36.38;;;9.75;;
35223;SDS011;21367;51.930;8.112;2023-05-06T06:47:12;88.10;;;10.65;;
35223;SDS011;21367;51.930;8.112;2023-05-06T06:52:17;48.00;;;12.02;;
35223;SDS011;21367;51.930;8.112;2023-05-06T06:57:21;129.20;;;13.00;;
35223;SDS011;21367;51.930;8.112;2023-05-06T07:02:29;65.82;;;12.48;;
35223;SDS011;21367;51.930;8.112;2023-05-06T07:07:34;40.80;;;11.05;;
35223;SDS011;21367;51.930;8.112;2023-05-06T07:12:38;62.63;;;11.10;;
35223;SDS011;21367;51.930;8.112;2023-05-06T07:17:44;21.95;;;11.65;;
35223;SDS011;21367;51.930;8.112;2023-05-06T07:22:47;20.58;;;11.85;;
35223;SDS011;21367;51.930;8.112;2023-05-06T07:27:51;20.38;;;11.43;;
35223;SDS011;21367;51.930;8.112;2023-05-06T07:32:58;29.10;;;11.23;;
35223;SDS011;21367;51.930;8.112;2023-05-06T07:38:02;25.65;;;12.00;;
35223;SDS011;21367;51.930;8.112;2023-05-06T07:43:06;24.08;;;13.13;;
35223;SDS011;21367;51.930;8.112;2023-05-06T07:48:13;23.83;;;13.35;;
35223;SDS011;21367;51.930;8.112;2023-05-06T07:53:18;24.08;;;13.07;;
35223;SDS011;21367;51.930;8.112;2023-05-06T07:58:22;23.65;;;14.35;;
35223;SDS011;21367;51.930;8.112;2023-05-06T08:03:30;25.70;;;14.27;;
35223;SDS011;21367;51.930;8.112;2023-05-06T08:08:33;24.77;;;13.45;;
35223;SDS011;21367;51.930;8.112;2023-05-06T08:13:39;24.63;;;13.95;;
35223;SDS011;21367;51.930;8.112;2023-05-06T08:18:46;24.83;;;14.48;;
35223;SDS011;21367;51.930;8.112;2023-05-06T08:23:50;24.77;;;14.25;;
35223;SDS011;21367;51.930;8.112;2023-05-06T08:28:54;27.85;;;15.10;;
35223;SDS011;21367;51.930;8.112;2023-05-06T08:34:01;25.70;;;15.25;;
35223;SDS011;21367;51.930;8.112;2023-05-06T08:39:05;38.13;;;17.40;;
35223;SDS011;21367;51.930;8.112;2023-05-06T08:44:09;28.50;;;15.77;;
35223;SDS011;21367;51.930;8.112;2023-05-06T08:49:22;28.40;;;15.05;;
35223;SDS011;21367;51.930;8.112;2023-05-06T08:54:26;30.90;;;16.25;;
35223;SDS011;21367;51.930;8.112;2023-05-06T08:59:30;37.20;;;18.85;;
35223;SDS011;21367;51.930;8.112;2023-05-06T09:04:37;33.15;;;17.67;;
35223;SDS011;21367;51.930;8.112;2023-05-06T09:09:40;33.47;;;15.73;;
35223;SDS011;21367;51.930;8.112;2023-05-06T09:14:48;28.90;;;15.45;;
35223;SDS011;21367;51.930;8.112;2023-05-06T09:19:55;31.00;;;16.50;;
35223;SDS011;21367;51.930;8.112;2023-05-06T09:25:01;47.08;;;19.05;;
35223;SDS011;21367;51.930;8.112;2023-05-06T09:30:08;38.08;;;18.90;;
35223;SDS011;21367;51.930;8.112;2023-05-06T09:35:16;36.20;;;17.43;;
35223;SDS011;21367;51.930;8.112;2023-05-06T09:40:21;35.60;;;16.63;;
35223;SDS011;21367;51.930;8.112;2023-05-06T09:45:29;34.33;;;18.10;;
35223;SDS011;21367;51.930;8.112;2023-05-06T09:50:36;37.95;;;16.95;;
35223;SDS011;21367;51.930;8.112;2023-05-06T09:55:40;30.58;;;16.40;;
35223;SDS011;21367;51.930;8.112;2023-05-06T10:00:46;32.13;;;15.77;;
35223;SDS011;21367;51.930;8.112;2023-05-06T10:05:58;30.88;;;17.38;;
35223;SDS011;21367;51.930;8.112;2023-05-06T10:11:03;31.42;;;16.00;;
35223;SDS011;21367;51.930;8.112;2023-05-06T10:16:08;30.58;;;15.73;;
35223;SDS011;21367;51.930;8.112;2023-05-06T10:21:23;32.35;;;16.67;;
35223;SDS011;21367;51.930;8.112;2023-05-06T10:26:31;26.63;;;15.32;;
35223;SDS011;21367;51.930;8.112;2023-05-06T10:31:39;24.33;;;14.82;;
35223;SDS011;21367;51.930;8.112;2023-05-06T10:36:52;29.98;;;14.48;;
35223;SDS011;21367;51.930;8.112;2023-05-06T10:42:00;23.90;;;14.63;;
35223;SDS011;21367;51.930;8.112;2023-05-06T10:52:24;24.23;;;12.98;;
35223;SDS011;21367;51.930;8.112;2023-05-06T10:57:45;19.08;;;12.68;;
35223;SDS011;21367;51.930;8.112;2023-05-06T11:02:49;24.23;;;13.10;;
35223;SDS011;21367;51.930;8.112;2023-05-06T11:08:09;22.30;;;13.10;;
35223;SDS011;21367;51.930;8.112;2023-05-06T11:13:18;18.58;;;11.30;;
35223;SDS011;21367;51.930;8.112;2023-05-06T11:29:14;20.88;;;13.07;;
35223;SDS011;21367;51.930;8.112;2023-05-06T11:39:31;15.35;;;9.75;;
35223;SDS011;21367;51.930;8.112;2023-05-06T11:44:37;25.60;;;12.00;;
35223;SDS011;21367;51.930;8.112;2023-05-06T11:49:41;19.33;;;10.53;;
35223;SDS011;21367;51.930;8.112;2023-05-06T11:54:51;20.10;;;9.38;;
35223;SDS011;21367;51.930;8.112;2023-05-06T11:59:55;16.15;;;9.13;;
35223;SDS011;21367;51.930;8.112;2023-05-06T12:05:12;17.42;;;9.52;;
35223;SDS011;21367;51.930;8.112;2023-05-06T12:10:20;14.90;;;8.73;;
35223;SDS011;21367;51.930;8.112;2023-05-06T12:15:24;16.17;;;8.98;;
35223;SDS011;21367;51.930;8.112;2023-05-06T12:20:28;16.52;;;9.13;;
35223;SDS011;21367;51.930;8.112;2023-05-06T12:25:36;16.45;;;9.07;;
35223;SDS011;21367;51.930;8.112;2023-05-06T12:30:40;15.95;;;8.07;;
35223;SDS011;21367;51.930;8.112;2023-05-06T12:35:44;18.27;;;9.57;;
35223;SDS011;21367;51.930;8.112;2023-05-06T12:40:56;17.70;;;8.60;;
35223;SDS011;21367;51.930;8.112;2023-05-06T12:46:03;13.30;;;7.28;;
35223;SDS011;21367;51.930;8.112;2023-05-06T12:51:17;14.43;;;8.32;;
35223;SDS011;21367;51.930;8.112;2023-05-06T12:56:25;14.68;;;8.13;;
35223;SDS011;21367;51.930;8.112;2023-05-06T13:01:29;14.52;;;7.13;;
35223;SDS011;21367;51.930;8.112;2023-05-06T13:06:33;11.00;;;6.47;;
35223;SDS011;21367;51.930;8.112;2023-05-06T13:11:40;14.30;;;6.95;;
35223;SDS011;21367;51.930;8.112;2023-05-06T13:16:44;13.40;;;7.57;;
35223;SDS011;21367;51.930;8.112;2023-05-06T13:21:48;17.75;;;7.18;;
35223;SDS011;21367;51.930;8.112;2023-05-06T13:26:54;13.43;;;7.60;;
35223;SDS011;21367;51.930;8.112;2023-05-06T13:32:00;18.80;;;7.53;;
35223;SDS011;21367;51.930;8.112;2023-05-06T13:37:04;18.92;;;6.78;;
35223;SDS011;21367;51.930;8.112;2023-05-06T13:47:16;12.52;;;6.22;;
35223;SDS011;21367;51.930;8.112;2023-05-06T13:52:20;11.63;;;6.28;;
35223;SDS011;21367;51.930;8.112;2023-05-06T13:57:28;13.57;;;5.60;;
35223;SDS011;21367;51.930;8.112;2023-05-06T14:02:32;13.00;;;5.57;;
35223;SDS011;21367;51.930;8.112;2023-05-06T14:07:37;17.35;;;5.45;;
35223;SDS011;21367;51.930;8.112;2023-05-06T14:12:44;14.93;;;7.40;;
35223;SDS011;21367;51.930;8.112;2023-05-06T14:17:48;10.45;;;4.95;;
35223;SDS011;21367;51.930;8.112;2023-05-06T14:22:52;15.50;;;4.47;;
35223;SDS011;21367;51.930;8.112;2023-05-06T14:27:58;7.47;;;3.85;;
35223;SDS011;21367;51.930;8.112;2023-05-06T14:33:03;8.00;;;3.80;;
35223;SDS011;21367;51.930;8.112;2023-05-06T14:38:06;7.93;;;3.88;;
35223;SDS011;21367;51.930;8.112;2023-05-06T14:43:14;6.35;;;3.80;;
35223;SDS011;21367;51.930;8.112;2023-05-06T14:48:18;7.05;;;3.88;;
35223;SDS011;21367;51.930;8.112;2023-05-06T14:53:26;7.70;;;3.75;;
35223;SDS011;21367;51.930;8.112;2023-05-06T14:58:33;8.68;;;3.33;;
35223;SDS011;21367;51.930;8.112;2023-05-06T15:03:38;6.47;;;3.30;;
35223;SDS011;21367;51.930;8.112;2023-05-06T15:08:44;6.25;;;3.03;;
35223;SDS011;21367;51.930;8.112;2023-05-06T15:13:51;6.10;;;3.20;;
35223;SDS011;21367;51.930;8.112;2023-05-06T15:18:55;7.25;;;3.20;;
35223;SDS011;21367;51.930;8.112;2023-05-06T15:23:59;8.27;;;3.00;;
35223;SDS011;21367;51.930;8.112;2023-05-06T15:29:06;5.50;;;2.20;;
35223;SDS011;21367;51.930;8.112;2023-05-06T15:34:11;8.27;;;2.63;;
35223;SDS011;21367;51.930;8.112;2023-05-06T15:39:15;5.85;;;2.30;;
35223;SDS011;21367;51.930;8.112;2023-05-06T15:44:21;5.22;;;2.25;;
35223;SDS011;21367;51.930;8.112;2023-05-06T15:49:26;7.70;;;2.55;;
35223;SDS011;21367;51.930;8.112;2023-05-06T15:54:30;4.57;;;2.03;;
35223;SDS011;21367;51.930;8.112;2023-05-06T16:04:42;3.83;;;1.60;;
35223;SDS011;21367;51.930;8.112;2023-05-06T16:09:46;5.50;;;2.30;;
35223;SDS011;21367;51.930;8.112;2023-05-06T16:14:54;6.90;;;2.08;;
35223;SDS011;21367;51.930;8.112;2023-05-06T16:19:58;5.75;;;2.10;;
35223;SDS011;21367;51.930;8.112;2023-05-06T16:25:03;2.70;;;1.93;;
35223;SDS011;21367;51.930;8.112;2023-05-06T16:30:11;6.37;;;2.27;;
35223;SDS011;21367;51.930;8.112;2023-05-06T16:35:16;4.88;;;1.70;;
35223;SDS011;21367;51.930;8.112;2023-05-06T16:40:20;6.38;;;2.30;;
35223;SDS011;21367;51.930;8.112;2023-05-06T16:45:28;5.53;;;2.53;;
35223;SDS011;21367;51.930;8.112;2023-05-06T16:50:31;6.20;;;2.53;;
35223;SDS011;21367;51.930;8.112;2023-05-06T16:55:35;11.82;;;2.90;;
35223;SDS011;21367;51.930;8.112;2023-05-06T17:00:42;8.40;;;2.47;;
35223;SDS011;21367;51.930;8.112;2023-05-06T17:05:46;10.98;;;2.25;;
35223;SDS011;21367;51.930;8.112;2023-05-06T17:10:50;6.50;;;2.70;;
35223;SDS011;21367;51.930;8.112;2023-05-06T17:15:58;8.20;;;3.05;;
35223;SDS011;21367;51.930;8.112;2023-05-06T17:21:03;5.50;;;2.92;;
35223;SDS011;21367;51.930;8.112;2023-05-06T17:26:09;7.28;;;3.10;;
35223;SDS011;21367;51.930;8.112;2023-05-06T17:31:16;9.15;;;2.88;;
35223;SDS011;21367;51.930;8.112;2023-05-06T17:36:20;10.23;;;3.25;;
35223;SDS011;21367;51.930;8.112;2023-05-06T17:41:24;5.47;;;2.80;;
35223;SDS011;21367;51.930;8.112;2023-05-06T17:46:30;6.80;;;2.92;;
35223;SDS011;21367;51.930;8.112;2023-05-06T17:51:34;13.25;;;3.28;;
35223;SDS011;21367;51.930;8.112;2023-05-06T17:56:38;6.85;;;2.85;;
35223;SDS011;21367;51.930;8.112;2023-05-06T18:07:07;9.25;;;4.45;;
35223;SDS011;21367;51.930;8.112;2023-05-06T18:12:11;8.85;;;3.70;;
35223;SDS011;21367;51.930;8.112;2023-05-06T18:17:18;9.23;;;3.78;;
35223;SDS011;21367;51.930;8.112;2023-05-06T18:22:22;9.25;;;3.38;;
35223;SDS011;21367;51.930;8.112;2023-05-06T18:27:25;10.25;;;3.80;;
35223;SDS011;21367;51.930;8.112;2023-05-06T18:32:35;8.77;;;3.55;;
35223;SDS011;21367;51.930;8.112;2023-05-06T18:37:38;12.25;;;6.65;;
35223;SDS011;21367;51.930;8.112;2023-05-06T18:42:42;17.38;;;8.15;;
35223;SDS011;21367;51.930;8.112;2023-05-06T18:47:50;9.73;;;5.57;;
35223;SDS011;21367;51.930;8.112;2023-05-06T18:52:53;12.75;;;6.07;;
35223;SDS011;21367;51.930;8.112;2023-05-06T18:57:57;16.77;;;5.53;;
35223;SDS011;21367;51.930;8.112;2023-05-06T19:03:07;8.13;;;4.32;;
35223;SDS011;21367;51.930;8.112;2023-05-06T19:08:12;11.05;;;3.35;;
35223;SDS011;21367;51.930;8.112;2023-05-06T19:13:15;5.80;;;2.83;;
35223;SDS011;21367;51.930;8.112;2023-05-06T19:18:22;8.07;;;2.47;;
35223;SDS011;21367;51.930;8.112;2023-05-06T19:23:30;5.65;;;2.47;;
35223;SDS011;21367;51.930;8.112;2023-05-06T19:28:34;5.70;;;2.80;;
35223;SDS011;21367;51.930;8.112;2023-05-06T19:33:41;8.27;;;2.78;;
35223;SDS011;21367;51.930;8.112;2023-05-06T19:38:45;7.85;;;3.50;;
35223;SDS011;21367;51.930;8.112;2023-05-06T19:43:49;11.30;;;3.20;;
35223;SDS011;21367;51.930;8.112;2023-05-06T19:48:55;11.02;;;3.65;;
35223;SDS011;21367;51.930;8.112;2023-05-06T19:54:00;7.03;;;3.50;;
35223;SDS011;21367;51.930;8.112;2023-05-06T19:59:05;8.65;;;4.25;;
35223;SDS011;21367;51.930;8.112;2023-05-06T20:04:12;10.57;;;4.10;;
35223;SDS011;21367;51.930;8.112;2023-05-06T20:09:16;11.35;;;4.38;;
35223;SDS011;21367;51.930;8.112;2023-05-06T20:14:20;8.57;;;4.80;;
35223;SDS011;21367;51.930;8.112;2023-05-06T20:19:27;9.70;;;4.20;;
35223;SDS011;21367;51.930;8.112;2023-05-06T20:24:31;9.25;;;4.72;;
35223;SDS011;21367;51.930;8.112;2023-05-06T20:29:36;18.15;;;7.57;;
35223;SDS011;21367;51.930;8.112;2023-05-06T20:34:42;14.27;;;7.65;;
35223;SDS011;21367;51.930;8.112;2023-05-06T20:39:46;15.02;;;6.68;;
35223;SDS011;21367;51.930;8.112;2023-05-06T20:44:50;7.85;;;4.80;;
35223;SDS011;21367;51.930;8.112;2023-05-06T20:49:56;9.52;;;5.18;;
35223;SDS011;21367;51.930;8.112;2023-05-06T20:55:01;15.57;;;6.78;;
35223;SDS011;21367;51.930;8.112;2023-05-06T21:00:07;11.88;;;6.25;;
35223;SDS011;21367;51.930;8.112;2023-05-06T21:05:14;15.70;;;6.60;;
35223;SDS011;21367;51.930;8.112;2023-05-06T21:15:21;17.92;;;9.27;;
35223;SDS011;21367;51.930;8.112;2023-05-06T21:20:27;19.88;;;7.72;;
35223;SDS011;21367;51.930;8.112;2023-05-06T21:25:31;11.32;;;7.15;;
35223;SDS011;21367;51.930;8.112;2023-05-06T21:30:35;12.82;;;8.00;;
35223;SDS011;21367;51.930;8.112;2023-05-06T21:35:42;19.20;;;8.65;;
35223;SDS011;21367;51.930;8.112;2023-05-06T21:45:49;14.27;;;7.05;;
35223;SDS011;21367;51.930;8.112;2023-05-06T21:50:55;10.93;;;6.30;;
35223;SDS011;21367;51.930;8.112;2023-05-06T21:56:00;13.18;;;7.40;;
35223;SDS011;21367;51.930;8.112;2023-05-06T22:01:04;10.38;;;6.22;;
35223;SDS011;21367;51.930;8.112;2023-05-06T22:06:10;13.85;;;6.25;;
35223;SDS011;21367;51.930;8.112;2023-05-06T22:11:15;15.18;;;6.10;;
35223;SDS011;21367;51.930;8.112;2023-05-06T22:16:18;14.20;;;5.63;;
35223;SDS011;21367;51.930;8.112;2023-05-06T22:21:25;8.88;;;5.13;;
35223;SDS011;21367;51.930;8.112;2023-05-06T22:26:30;8.35;;;5.00;;
35223;SDS011;21367;51.930;8.112;2023-05-06T22:31:34;10.48;;;5.50;;
35223;SDS011;21367;51.930;8.112;2023-05-06T22:36:41;12.82;;;6.30;;
35223;SDS011;21367;51.930;8.112;2023-05-06T22:41:45;11.50;;;6.38;;
35223;SDS011;21367;51.930;8.112;2023-05-06T22:46:50;11.25;;;5.60;;
35223;SDS011;21367;51.930;8.112;2023-05-06T22:51:57;11.27;;;6.30;;
35223;SDS011;21367;51.930;8.112;2023-05-06T22:57:00;10.20;;;5.53;;
35223;SDS011;21367;51.930;8.112;2023-05-06T23:02:04;9.48;;;5.28;;
35223;SDS011;21367;51.930;8.112;2023-05-06T23:07:10;10.57;;;6.60;;
35223;SDS011;21367;51.930;8.112;2023-05-06T23:17:17;12.30;;;7.00;;
35223;SDS011;21367;51.930;8.112;2023-05-06T23:22:24;10.38;;;6.00;;
35223;SDS011;21367;51.930;8.112;2023-05-06T23:27:28;13.10;;;6.38;;
35223;SDS011;21367;51.930;8.112;2023-05-06T23:32:32;13.48;;;7.07;;
35223;SDS011;21367;51.930;8.112;2023-05-06T23:37:38;18.25;;;6.78;;
35223;SDS011;21367;51.930;8.112;2023-05-06T23:42:42;10.38;;;6.13;;
35223;SDS011;21367;51.930;8.112;2023-05-06T23:47:46;13.88;;;7.03;;
35223;SDS011;21367;51.930;8.112;2023-05-06T23:52:53;10.75;;;6.78;;
35223;SDS011;21367;51.930;8.112;2023-05-06T23:57:56;14.07;;;6.60;;
